Terminal Aerodrome Forecast
Issued by NWS North Platte, NE

Home | Current Version | Previous Version | Graphics & Text | Print | Product List | Glossary On
Versions: 1 2 3 4 5 6 7 8 9 10 11 12 13 14 15 16 17 18 19 20 21 22 23 24 25 26 27
218
FTUS43 KLBF 261503 AAA
TAFVTN
TAF AMD
KVTN 261503Z 2615/2712 19013G18KT P6SM SCT200
     FM261600 19014G21KT P6SM VCTS BKN150CB
     FM262000 19014G22KT P6SM FEW070 SCT200
     FM270000 15012G18KT P6SM BKN060 BKN120
      TEMPO 2700/2704 VRB20G35KT 5SM TSRA BKN060CB BKN120
     FM270400 15009KT P6SM BKN070 OVC200 PROB30 2704/2707 -TSRA
      BKN060CB=

USA.gov is the U.S. government's official web portal to all federal, state and local government web resources and services.